sensor_id;sensor_type;location;lat;lon;timestamp;P1;durP1;ratioP1;P2;durP2;ratioP2
10827;SDS011;5467;59.334;13.512;2023-04-29T00:02:01;0.60;;;0.60;;
10827;SDS011;5467;59.334;13.512;2023-04-29T00:04:29;0.60;;;0.60;;
10827;SDS011;5467;59.334;13.512;2023-04-29T00:06:56;0.63;;;0.63;;
10827;SDS011;5467;59.334;13.512;2023-04-29T00:09:23;0.70;;;0.70;;
10827;SDS011;5467;59.334;13.512;2023-04-29T00:11:50;0.70;;;0.70;;
10827;SDS011;5467;59.334;13.512;2023-04-29T00:14:17;0.70;;;0.70;;
10827;SDS011;5467;59.334;13.512;2023-04-29T00:16:45;0.60;;;0.60;;
10827;SDS011;5467;59.334;13.512;2023-04-29T00:19:12;0.60;;;0.60;;
10827;SDS011;5467;59.334;13.512;2023-04-29T00:21:40;0.70;;;0.70;;
10827;SDS011;5467;59.334;13.512;2023-04-29T00:24:08;0.60;;;0.60;;
10827;SDS011;5467;59.334;13.512;2023-04-29T00:26:35;0.60;;;0.60;;
10827;SDS011;5467;59.334;13.512;2023-04-29T00:29:02;0.60;;;0.60;;
10827;SDS011;5467;59.334;13.512;2023-04-29T00:31:29;0.60;;;0.60;;
10827;SDS011;5467;59.334;13.512;2023-04-29T00:33:56;0.60;;;0.60;;
10827;SDS011;5467;59.334;13.512;2023-04-29T00:36:23;0.60;;;0.60;;
10827;SDS011;5467;59.334;13.512;2023-04-29T00:38:54;0.60;;;0.60;;
10827;SDS011;5467;59.334;13.512;2023-04-29T00:41:21;0.60;;;0.60;;
10827;SDS011;5467;59.334;13.512;2023-04-29T00:43:49;0.60;;;0.60;;
10827;SDS011;5467;59.334;13.512;2023-04-29T00:46:16;0.60;;;0.60;;
10827;SDS011;5467;59.334;13.512;2023-04-29T00:48:44;0.60;;;0.60;;
10827;SDS011;5467;59.334;13.512;2023-04-29T00:51:11;0.60;;;0.60;;
10827;SDS011;5467;59.334;13.512;2023-04-29T00:53:38;0.60;;;0.60;;
10827;SDS011;5467;59.334;13.512;2023-04-29T00:56:07;0.60;;;0.60;;
10827;SDS011;5467;59.334;13.512;2023-04-29T00:58:35;0.70;;;0.70;;
10827;SDS011;5467;59.334;13.512;2023-04-29T01:01:03;0.67;;;0.67;;
10827;SDS011;5467;59.334;13.512;2023-04-29T01:03:31;0.80;;;0.80;;
10827;SDS011;5467;59.334;13.512;2023-04-29T01:06:02;0.70;;;0.70;;
10827;SDS011;5467;59.334;13.512;2023-04-29T01:08:40;0.70;;;0.70;;
10827;SDS011;5467;59.334;13.512;2023-04-29T01:11:17;0.60;;;0.60;;
10827;SDS011;5467;59.334;13.512;2023-04-29T01:13:49;0.60;;;0.60;;
10827;SDS011;5467;59.334;13.512;2023-04-29T01:16:20;0.60;;;0.60;;
10827;SDS011;5467;59.334;13.512;2023-04-29T01:18:52;0.70;;;0.70;;
10827;SDS011;5467;59.334;13.512;2023-04-29T01:21:21;0.60;;;0.60;;
10827;SDS011;5467;59.334;13.512;2023-04-29T01:23:52;0.60;;;0.60;;
10827;SDS011;5467;59.334;13.512;2023-04-29T01:26:21;0.60;;;0.60;;
10827;SDS011;5467;59.334;13.512;2023-04-29T01:28:49;0.60;;;0.60;;
10827;SDS011;5467;59.334;13.512;2023-04-29T01:31:24;0.60;;;0.60;;
10827;SDS011;5467;59.334;13.512;2023-04-29T01:33:58;0.60;;;0.60;;
10827;SDS011;5467;59.334;13.512;2023-04-29T01:36:36;0.50;;;0.50;;
10827;SDS011;5467;59.334;13.512;2023-04-29T01:39:13;0.50;;;0.50;;
10827;SDS011;5467;59.334;13.512;2023-04-29T01:41:49;0.50;;;0.50;;
10827;SDS011;5467;59.334;13.512;2023-04-29T01:44:23;0.60;;;0.60;;
10827;SDS011;5467;59.334;13.512;2023-04-29T01:46:54;0.80;;;0.80;;
10827;SDS011;5467;59.334;13.512;2023-04-29T01:49:23;0.70;;;0.70;;
10827;SDS011;5467;59.334;13.512;2023-04-29T01:51:50;0.60;;;0.60;;
10827;SDS011;5467;59.334;13.512;2023-04-29T01:54:19;0.60;;;0.60;;
10827;SDS011;5467;59.334;13.512;2023-04-29T01:56:46;0.60;;;0.60;;
10827;SDS011;5467;59.334;13.512;2023-04-29T01:59:15;0.60;;;0.60;;
10827;SDS011;5467;59.334;13.512;2023-04-29T02:01:42;0.60;;;0.60;;
10827;SDS011;5467;59.334;13.512;2023-04-29T02:04:09;0.50;;;0.50;;
10827;SDS011;5467;59.334;13.512;2023-04-29T02:06:36;0.60;;;0.60;;
10827;SDS011;5467;59.334;13.512;2023-04-29T02:09:03;0.50;;;0.50;;
10827;SDS011;5467;59.334;13.512;2023-04-29T02:11:31;0.57;;;0.57;;
10827;SDS011;5467;59.334;13.512;2023-04-29T02:13:59;0.60;;;0.60;;
10827;SDS011;5467;59.334;13.512;2023-04-29T02:16:26;0.50;;;0.50;;
10827;SDS011;5467;59.334;13.512;2023-04-29T02:18:53;0.60;;;0.60;;
10827;SDS011;5467;59.334;13.512;2023-04-29T02:21:20;0.60;;;0.60;;
10827;SDS011;5467;59.334;13.512;2023-04-29T02:23:47;0.50;;;0.50;;
10827;SDS011;5467;59.334;13.512;2023-04-29T02:26:14;0.50;;;0.50;;
10827;SDS011;5467;59.334;13.512;2023-04-29T02:28:43;0.50;;;0.50;;
10827;SDS011;5467;59.334;13.512;2023-04-29T02:31:10;0.60;;;0.60;;
10827;SDS011;5467;59.334;13.512;2023-04-29T02:33:37;0.60;;;0.60;;
10827;SDS011;5467;59.334;13.512;2023-04-29T02:36:05;0.50;;;0.50;;
10827;SDS011;5467;59.334;13.512;2023-04-29T02:38:32;0.60;;;0.60;;
10827;SDS011;5467;59.334;13.512;2023-04-29T02:40:59;0.50;;;0.50;;
10827;SDS011;5467;59.334;13.512;2023-04-29T02:43:26;0.50;;;0.50;;
10827;SDS011;5467;59.334;13.512;2023-04-29T02:45:56;0.60;;;0.60;;
10827;SDS011;5467;59.334;13.512;2023-04-29T02:48:24;0.53;;;0.53;;
10827;SDS011;5467;59.334;13.512;2023-04-29T02:50:54;0.60;;;0.60;;
10827;SDS011;5467;59.334;13.512;2023-04-29T02:53:21;0.50;;;0.50;;
10827;SDS011;5467;59.334;13.512;2023-04-29T02:55:48;0.50;;;0.50;;
10827;SDS011;5467;59.334;13.512;2023-04-29T02:58:15;0.60;;;0.60;;
10827;SDS011;5467;59.334;13.512;2023-04-29T03:00:43;0.50;;;0.50;;
10827;SDS011;5467;59.334;13.512;2023-04-29T03:03:12;0.60;;;0.60;;
10827;SDS011;5467;59.334;13.512;2023-04-29T03:05:39;0.50;;;0.50;;
10827;SDS011;5467;59.334;13.512;2023-04-29T03:08:06;0.50;;;0.50;;
10827;SDS011;5467;59.334;13.512;2023-04-29T03:10:34;0.50;;;0.50;;
10827;SDS011;5467;59.334;13.512;2023-04-29T03:13:01;0.60;;;0.60;;
10827;SDS011;5467;59.334;13.512;2023-04-29T03:15:29;0.50;;;0.50;;
10827;SDS011;5467;59.334;13.512;2023-04-29T03:17:56;0.60;;;0.60;;
10827;SDS011;5467;59.334;13.512;2023-04-29T03:20:27;0.60;;;0.60;;
10827;SDS011;5467;59.334;13.512;2023-04-29T03:22:54;0.50;;;0.50;;
10827;SDS011;5467;59.334;13.512;2023-04-29T03:25:21;0.50;;;0.50;;
10827;SDS011;5467;59.334;13.512;2023-04-29T03:27:48;0.60;;;0.60;;
10827;SDS011;5467;59.334;13.512;2023-04-29T03:30:15;0.50;;;0.50;;
10827;SDS011;5467;59.334;13.512;2023-04-29T03:32:43;0.50;;;0.50;;
10827;SDS011;5467;59.334;13.512;2023-04-29T03:35:10;0.50;;;0.50;;
10827;SDS011;5467;59.334;13.512;2023-04-29T03:37:38;0.60;;;0.60;;
10827;SDS011;5467;59.334;13.512;2023-04-29T03:40:08;0.53;;;0.53;;
10827;SDS011;5467;59.334;13.512;2023-04-29T03:42:36;0.57;;;0.57;;
10827;SDS011;5467;59.334;13.512;2023-04-29T03:45:04;0.50;;;0.50;;
10827;SDS011;5467;59.334;13.512;2023-04-29T03:47:32;0.50;;;0.50;;
10827;SDS011;5467;59.334;13.512;2023-04-29T03:50:00;0.60;;;0.60;;
10827;SDS011;5467;59.334;13.512;2023-04-29T03:52:27;0.40;;;0.40;;
10827;SDS011;5467;59.334;13.512;2023-04-29T03:54:55;0.40;;;0.40;;
10827;SDS011;5467;59.334;13.512;2023-04-29T03:57:23;0.60;;;0.60;;
10827;SDS011;5467;59.334;13.512;2023-04-29T03:59:50;0.47;;;0.47;;
10827;SDS011;5467;59.334;13.512;2023-04-29T04:02:18;0.50;;;0.50;;
10827;SDS011;5467;59.334;13.512;2023-04-29T04:04:45;0.40;;;0.40;;
10827;SDS011;5467;59.334;13.512;2023-04-29T04:07:12;0.50;;;0.50;;
10827;SDS011;5467;59.334;13.512;2023-04-29T04:09:39;0.50;;;0.50;;
10827;SDS011;5467;59.334;13.512;2023-04-29T04:12:07;0.50;;;0.50;;
10827;SDS011;5467;59.334;13.512;2023-04-29T04:14:35;0.50;;;0.50;;
10827;SDS011;5467;59.334;13.512;2023-04-29T04:17:02;0.50;;;0.50;;
10827;SDS011;5467;59.334;13.512;2023-04-29T04:19:29;0.40;;;0.40;;
10827;SDS011;5467;59.334;13.512;2023-04-29T04:21:57;0.50;;;0.50;;
10827;SDS011;5467;59.334;13.512;2023-04-29T04:24:24;0.50;;;0.50;;
10827;SDS011;5467;59.334;13.512;2023-04-29T04:26:52;0.43;;;0.43;;
10827;SDS011;5467;59.334;13.512;2023-04-29T04:29:20;0.50;;;0.50;;
10827;SDS011;5467;59.334;13.512;2023-04-29T04:31:47;0.50;;;0.50;;
10827;SDS011;5467;59.334;13.512;2023-04-29T04:34:15;0.50;;;0.50;;
10827;SDS011;5467;59.334;13.512;2023-04-29T04:36:42;0.50;;;0.50;;
10827;SDS011;5467;59.334;13.512;2023-04-29T04:39:10;0.60;;;0.60;;
10827;SDS011;5467;59.334;13.512;2023-04-29T04:41:37;0.50;;;0.50;;
10827;SDS011;5467;59.334;13.512;2023-04-29T04:44:04;0.60;;;0.60;;
10827;SDS011;5467;59.334;13.512;2023-04-29T04:46:33;0.60;;;0.60;;
10827;SDS011;5467;59.334;13.512;2023-04-29T04:49:01;0.60;;;0.60;;
10827;SDS011;5467;59.334;13.512;2023-04-29T04:51:28;0.60;;;0.60;;
10827;SDS011;5467;59.334;13.512;2023-04-29T04:53:55;0.50;;;0.50;;
10827;SDS011;5467;59.334;13.512;2023-04-29T04:56:22;0.60;;;0.60;;
10827;SDS011;5467;59.334;13.512;2023-04-29T04:58:49;0.50;;;0.50;;
10827;SDS011;5467;59.334;13.512;2023-04-29T05:01:16;0.53;;;0.53;;
10827;SDS011;5467;59.334;13.512;2023-04-29T05:03:45;0.57;;;0.57;;
10827;SDS011;5467;59.334;13.512;2023-04-29T05:06:12;0.60;;;0.60;;
10827;SDS011;5467;59.334;13.512;2023-04-29T05:08:39;0.50;;;0.50;;
10827;SDS011;5467;59.334;13.512;2023-04-29T05:11:14;0.60;;;0.60;;
10827;SDS011;5467;59.334;13.512;2023-04-29T05:13:41;0.60;;;0.60;;
10827;SDS011;5467;59.334;13.512;2023-04-29T05:16:08;0.50;;;0.50;;
10827;SDS011;5467;59.334;13.512;2023-04-29T05:18:36;0.50;;;0.50;;
10827;SDS011;5467;59.334;13.512;2023-04-29T05:21:04;0.50;;;0.50;;
10827;SDS011;5467;59.334;13.512;2023-04-29T05:23:31;0.50;;;0.50;;
10827;SDS011;5467;59.334;13.512;2023-04-29T05:25:58;0.50;;;0.50;;
10827;SDS011;5467;59.334;13.512;2023-04-29T05:28:26;0.60;;;0.60;;
10827;SDS011;5467;59.334;13.512;2023-04-29T05:30:53;0.50;;;0.50;;
10827;SDS011;5467;59.334;13.512;2023-04-29T05:33:20;0.60;;;0.60;;
10827;SDS011;5467;59.334;13.512;2023-04-29T05:35:47;0.50;;;0.50;;
10827;SDS011;5467;59.334;13.512;2023-04-29T05:38:15;0.60;;;0.60;;
10827;SDS011;5467;59.334;13.512;2023-04-29T05:40:43;0.63;;;0.63;;
10827;SDS011;5467;59.334;13.512;2023-04-29T05:43:10;0.60;;;0.60;;
10827;SDS011;5467;59.334;13.512;2023-04-29T05:45:37;0.60;;;0.60;;
10827;SDS011;5467;59.334;13.512;2023-04-29T05:48:04;0.50;;;0.50;;
10827;SDS011;5467;59.334;13.512;2023-04-29T05:50:33;0.60;;;0.60;;
10827;SDS011;5467;59.334;13.512;2023-04-29T05:53:01;0.60;;;0.60;;
10827;SDS011;5467;59.334;13.512;2023-04-29T05:55:30;0.70;;;0.70;;
10827;SDS011;5467;59.334;13.512;2023-04-29T05:57:57;0.70;;;0.70;;
10827;SDS011;5467;59.334;13.512;2023-04-29T06:00:24;0.70;;;0.70;;
10827;SDS011;5467;59.334;13.512;2023-04-29T06:02:52;0.60;;;0.60;;
10827;SDS011;5467;59.334;13.512;2023-04-29T06:05:19;0.60;;;0.60;;
10827;SDS011;5467;59.334;13.512;2023-04-29T06:07:46;0.67;;;0.67;;
10827;SDS011;5467;59.334;13.512;2023-04-29T06:10:13;0.60;;;0.60;;
10827;SDS011;5467;59.334;13.512;2023-04-29T06:12:42;0.60;;;0.60;;
10827;SDS011;5467;59.334;13.512;2023-04-29T06:15:10;0.60;;;0.60;;
10827;SDS011;5467;59.334;13.512;2023-04-29T06:17:37;0.60;;;0.60;;
10827;SDS011;5467;59.334;13.512;2023-04-29T06:20:05;0.60;;;0.60;;
10827;SDS011;5467;59.334;13.512;2023-04-29T06:22:33;0.70;;;0.70;;
10827;SDS011;5467;59.334;13.512;2023-04-29T06:25:00;0.70;;;0.70;;
10827;SDS011;5467;59.334;13.512;2023-04-29T06:27:27;0.70;;;0.70;;
10827;SDS011;5467;59.334;13.512;2023-04-29T06:29:56;0.60;;;0.60;;
10827;SDS011;5467;59.334;13.512;2023-04-29T06:32:23;0.70;;;0.70;;
10827;SDS011;5467;59.334;13.512;2023-04-29T06:34:50;0.67;;;0.67;;
10827;SDS011;5467;59.334;13.512;2023-04-29T06:37:18;0.70;;;0.70;;
10827;SDS011;5467;59.334;13.512;2023-04-29T06:39:48;0.70;;;0.70;;
10827;SDS011;5467;59.334;13.512;2023-04-29T06:42:15;0.60;;;0.60;;
10827;SDS011;5467;59.334;13.512;2023-04-29T06:44:42;0.60;;;0.60;;
10827;SDS011;5467;59.334;13.512;2023-04-29T06:47:11;0.60;;;0.60;;
10827;SDS011;5467;59.334;13.512;2023-04-29T06:49:39;0.67;;;0.67;;
10827;SDS011;5467;59.334;13.512;2023-04-29T06:52:07;0.70;;;0.70;;
10827;SDS011;5467;59.334;13.512;2023-04-29T06:54:35;0.60;;;0.60;;
10827;SDS011;5467;59.334;13.512;2023-04-29T06:57:02;0.77;;;0.77;;
10827;SDS011;5467;59.334;13.512;2023-04-29T06:59:29;0.60;;;0.60;;
10827;SDS011;5467;59.334;13.512;2023-04-29T07:01:57;0.70;;;0.70;;
10827;SDS011;5467;59.334;13.512;2023-04-29T07:04:25;0.70;;;0.70;;
10827;SDS011;5467;59.334;13.512;2023-04-29T07:06:52;0.60;;;0.60;;
10827;SDS011;5467;59.334;13.512;2023-04-29T07:09:20;0.60;;;0.60;;
10827;SDS011;5467;59.334;13.512;2023-04-29T07:11:50;0.60;;;0.60;;
10827;SDS011;5467;59.334;13.512;2023-04-29T07:14:17;0.70;;;0.70;;
10827;SDS011;5467;59.334;13.512;2023-04-29T07:16:46;0.70;;;0.70;;
10827;SDS011;5467;59.334;13.512;2023-04-29T07:19:13;0.70;;;0.70;;
10827;SDS011;5467;59.334;13.512;2023-04-29T07:21:42;0.70;;;0.70;;
10827;SDS011;5467;59.334;13.512;2023-04-29T07:24:09;0.67;;;0.67;;
10827;SDS011;5467;59.334;13.512;2023-04-29T07:26:36;0.70;;;0.70;;
10827;SDS011;5467;59.334;13.512;2023-04-29T07:29:03;0.70;;;0.70;;
10827;SDS011;5467;59.334;13.512;2023-04-29T07:31:30;0.70;;;0.70;;
10827;SDS011;5467;59.334;13.512;2023-04-29T07:33:57;0.70;;;0.70;;
10827;SDS011;5467;59.334;13.512;2023-04-29T07:36:24;0.60;;;0.60;;
10827;SDS011;5467;59.334;13.512;2023-04-29T07:38:54;0.70;;;0.70;;
10827;SDS011;5467;59.334;13.512;2023-04-29T07:41:21;0.60;;;0.60;;
10827;SDS011;5467;59.334;13.512;2023-04-29T07:43:49;0.60;;;0.60;;
10827;SDS011;5467;59.334;13.512;2023-04-29T07:46:16;0.50;;;0.50;;
10827;SDS011;5467;59.334;13.512;2023-04-29T07:48:43;0.50;;;0.50;;
10827;SDS011;5467;59.334;13.512;2023-04-29T07:51:11;0.50;;;0.50;;
10827;SDS011;5467;59.334;13.512;2023-04-29T07:53:39;0.50;;;0.50;;
10827;SDS011;5467;59.334;13.512;2023-04-29T07:56:08;0.60;;;0.60;;
10827;SDS011;5467;59.334;13.512;2023-04-29T07:58:35;0.50;;;0.50;;
10827;SDS011;5467;59.334;13.512;2023-04-29T08:01:06;0.50;;;0.50;;
10827;SDS011;5467;59.334;13.512;2023-04-29T08:03:34;0.50;;;0.50;;
10827;SDS011;5467;59.334;13.512;2023-04-29T08:06:01;0.57;;;0.57;;
10827;SDS011;5467;59.334;13.512;2023-04-29T08:08:29;0.60;;;0.60;;
10827;SDS011;5467;59.334;13.512;2023-04-29T08:10:56;0.60;;;0.60;;
10827;SDS011;5467;59.334;13.512;2023-04-29T08:13:25;0.60;;;0.60;;
10827;SDS011;5467;59.334;13.512;2023-04-29T08:15:52;0.60;;;0.60;;
10827;SDS011;5467;59.334;13.512;2023-04-29T08:18:19;0.60;;;0.60;;
10827;SDS011;5467;59.334;13.512;2023-04-29T08:20:47;0.60;;;0.60;;
10827;SDS011;5467;59.334;13.512;2023-04-29T08:23:15;0.60;;;0.60;;
10827;SDS011;5467;59.334;13.512;2023-04-29T08:25:42;0.70;;;0.70;;
10827;SDS011;5467;59.334;13.512;2023-04-29T08:28:09;0.60;;;0.60;;
10827;SDS011;5467;59.334;13.512;2023-04-29T08:30:39;0.60;;;0.60;;
10827;SDS011;5467;59.334;13.512;2023-04-29T08:33:06;0.60;;;0.60;;
10827;SDS011;5467;59.334;13.512;2023-04-29T08:35:33;0.60;;;0.60;;
10827;SDS011;5467;59.334;13.512;2023-04-29T08:38:03;0.60;;;0.60;;
10827;SDS011;5467;59.334;13.512;2023-04-29T08:40:33;0.60;;;0.60;;
10827;SDS011;5467;59.334;13.512;2023-04-29T08:43:02;0.70;;;0.70;;
10827;SDS011;5467;59.334;13.512;2023-04-29T08:45:29;0.63;;;0.63;;
10827;SDS011;5467;59.334;13.512;2023-04-29T08:48:01;0.60;;;0.60;;
10827;SDS011;5467;59.334;13.512;2023-04-29T08:50:28;0.70;;;0.70;;
10827;SDS011;5467;59.334;13.512;2023-04-29T08:52:56;0.60;;;0.60;;
10827;SDS011;5467;59.334;13.512;2023-04-29T08:55:23;0.70;;;0.70;;
10827;SDS011;5467;59.334;13.512;2023-04-29T08:57:52;0.70;;;0.70;;
10827;SDS011;5467;59.334;13.512;2023-04-29T09:00:20;0.70;;;0.70;;
10827;SDS011;5467;59.334;13.512;2023-04-29T09:02:50;0.60;;;0.60;;
10827;SDS011;5467;59.334;13.512;2023-04-29T09:05:21;0.70;;;0.70;;
10827;SDS011;5467;59.334;13.512;2023-04-29T09:07:49;0.70;;;0.70;;
10827;SDS011;5467;59.334;13.512;2023-04-29T09:10:17;1.40;;;0.70;;
10827;SDS011;5467;59.334;13.512;2023-04-29T09:12:45;0.70;;;0.70;;
10827;SDS011;5467;59.334;13.512;2023-04-29T09:15:12;0.77;;;0.77;;
10827;SDS011;5467;59.334;13.512;2023-04-29T09:17:40;0.80;;;0.80;;
10827;SDS011;5467;59.334;13.512;2023-04-29T09:22:59;0.73;;;0.73;;
10827;SDS011;5467;59.334;13.512;2023-04-29T09:25:27;0.60;;;0.60;;
10827;SDS011;5467;59.334;13.512;2023-04-29T09:27:55;0.70;;;0.70;;
10827;SDS011;5467;59.334;13.512;2023-04-29T09:30:23;0.70;;;0.70;;
10827;SDS011;5467;59.334;13.512;2023-04-29T09:33:03;0.70;;;0.70;;
10827;SDS011;5467;59.334;13.512;2023-04-29T09:35:33;0.70;;;0.70;;
10827;SDS011;5467;59.334;13.512;2023-04-29T09:38:08;0.70;;;0.70;;
10827;SDS011;5467;59.334;13.512;2023-04-29T09:40:39;0.90;;;0.90;;
10827;SDS011;5467;59.334;13.512;2023-04-29T09:43:11;0.80;;;0.80;;
10827;SDS011;5467;59.334;13.512;2023-04-29T09:45:40;0.60;;;0.60;;
10827;SDS011;5467;59.334;13.512;2023-04-29T09:48:08;0.50;;;0.50;;
10827;SDS011;5467;59.334;13.512;2023-04-29T09:50:38;0.70;;;0.70;;
10827;SDS011;5467;59.334;13.512;2023-04-29T09:53:08;0.40;;;0.40;;
10827;SDS011;5467;59.334;13.512;2023-04-29T09:55:37;0.50;;;0.50;;
10827;SDS011;5467;59.334;13.512;2023-04-29T09:58:26;0.47;;;0.47;;
10827;SDS011;5467;59.334;13.512;2023-04-29T10:00:56;0.50;;;0.50;;
10827;SDS011;5467;59.334;13.512;2023-04-29T10:03:26;0.50;;;0.50;;
10827;SDS011;5467;59.334;13.512;2023-04-29T10:06:02;0.60;;;0.60;;
10827;SDS011;5467;59.334;13.512;2023-04-29T10:08:31;0.50;;;0.50;;
10827;SDS011;5467;59.334;13.512;2023-04-29T10:10:59;0.50;;;0.50;;
10827;SDS011;5467;59.334;13.512;2023-04-29T10:13:28;0.50;;;0.50;;
10827;SDS011;5467;59.334;13.512;2023-04-29T10:15:57;0.40;;;0.40;;
10827;SDS011;5467;59.334;13.512;2023-04-29T10:18:34;0.50;;;0.50;;
10827;SDS011;5467;59.334;13.512;2023-04-29T10:21:05;0.50;;;0.50;;
10827;SDS011;5467;59.334;13.512;2023-04-29T10:23:34;0.50;;;0.50;;
10827;SDS011;5467;59.334;13.512;2023-04-29T10:26:02;0.40;;;0.40;;
10827;SDS011;5467;59.334;13.512;2023-04-29T10:28:31;0.50;;;0.50;;
10827;SDS011;5467;59.334;13.512;2023-04-29T10:30:59;0.40;;;0.40;;
10827;SDS011;5467;59.334;13.512;2023-04-29T10:33:30;0.50;;;0.50;;
10827;SDS011;5467;59.334;13.512;2023-04-29T10:35:58;0.50;;;0.50;;
10827;SDS011;5467;59.334;13.512;2023-04-29T10:38:29;0.50;;;0.50;;
10827;SDS011;5467;59.334;13.512;2023-04-29T10:41:01;0.40;;;0.40;;
10827;SDS011;5467;59.334;13.512;2023-04-29T10:43:34;0.50;;;0.50;;
10827;SDS011;5467;59.334;13.512;2023-04-29T10:48:55;0.40;;;0.40;;
10827;SDS011;5467;59.334;13.512;2023-04-29T10:51:27;0.40;;;0.40;;
10827;SDS011;5467;59.334;13.512;2023-04-29T10:53:58;0.40;;;0.40;;
10827;SDS011;5467;59.334;13.512;2023-04-29T10:56:36;0.40;;;0.40;;
10827;SDS011;5467;59.334;13.512;2023-04-29T10:59:05;0.40;;;0.40;;
10827;SDS011;5467;59.334;13.512;2023-04-29T11:01:40;0.43;;;0.43;;
10827;SDS011;5467;59.334;13.512;2023-04-29T11:04:18;0.40;;;0.40;;
10827;SDS011;5467;59.334;13.512;2023-04-29T11:06:46;0.40;;;0.40;;
10827;SDS011;5467;59.334;13.512;2023-04-29T11:09:23;0.40;;;0.40;;
10827;SDS011;5467;59.334;13.512;2023-04-29T11:11:58;0.40;;;0.40;;
10827;SDS011;5467;59.334;13.512;2023-04-29T11:14:30;0.40;;;0.40;;
10827;SDS011;5467;59.334;13.512;2023-04-29T11:17:02;0.40;;;0.40;;
10827;SDS011;5467;59.334;13.512;2023-04-29T11:19:31;0.40;;;0.40;;
10827;SDS011;5467;59.334;13.512;2023-04-29T11:22:12;0.40;;;0.40;;
10827;SDS011;5467;59.334;13.512;2023-04-29T11:24:54;0.40;;;0.40;;
10827;SDS011;5467;59.334;13.512;2023-04-29T11:27:25;0.50;;;0.50;;
10827;SDS011;5467;59.334;13.512;2023-04-29T11:29:55;0.40;;;0.40;;
10827;SDS011;5467;59.334;13.512;2023-04-29T11:32:24;0.40;;;0.40;;
10827;SDS011;5467;59.334;13.512;2023-04-29T11:34:52;0.40;;;0.40;;
10827;SDS011;5467;59.334;13.512;2023-04-29T11:37:19;0.40;;;0.40;;
10827;SDS011;5467;59.334;13.512;2023-04-29T11:39:47;0.43;;;0.43;;
10827;SDS011;5467;59.334;13.512;2023-04-29T11:42:19;0.40;;;0.40;;
10827;SDS011;5467;59.334;13.512;2023-04-29T11:44:50;0.40;;;0.40;;
10827;SDS011;5467;59.334;13.512;2023-04-29T11:47:18;0.40;;;0.40;;
10827;SDS011;5467;59.334;13.512;2023-04-29T11:49:46;0.30;;;0.30;;
10827;SDS011;5467;59.334;13.512;2023-04-29T11:52:13;0.40;;;0.40;;
10827;SDS011;5467;59.334;13.512;2023-04-29T11:54:41;0.50;;;0.50;;
10827;SDS011;5467;59.334;13.512;2023-04-29T11:57:09;0.40;;;0.40;;
10827;SDS011;5467;59.334;13.512;2023-04-29T11:59:38;0.40;;;0.40;;
10827;SDS011;5467;59.334;13.512;2023-04-29T12:02:10;0.40;;;0.40;;
10827;SDS011;5467;59.334;13.512;2023-04-29T12:04:43;0.40;;;0.40;;
10827;SDS011;5467;59.334;13.512;2023-04-29T12:07:13;0.60;;;0.60;;
10827;SDS011;5467;59.334;13.512;2023-04-29T12:09:41;0.50;;;0.50;;
10827;SDS011;5467;59.334;13.512;2023-04-29T12:12:08;0.50;;;0.50;;
10827;SDS011;5467;59.334;13.512;2023-04-29T12:14:38;0.50;;;0.50;;
10827;SDS011;5467;59.334;13.512;2023-04-29T12:17:06;0.40;;;0.40;;
10827;SDS011;5467;59.334;13.512;2023-04-29T12:19:38;0.47;;;0.47;;
10827;SDS011;5467;59.334;13.512;2023-04-29T12:22:05;0.50;;;0.50;;
10827;SDS011;5467;59.334;13.512;2023-04-29T12:24:34;0.50;;;0.50;;
10827;SDS011;5467;59.334;13.512;2023-04-29T12:27:02;0.60;;;0.60;;
10827;SDS011;5467;59.334;13.512;2023-04-29T12:29:30;0.50;;;0.50;;
10827;SDS011;5467;59.334;13.512;2023-04-29T12:32:00;0.50;;;0.50;;
10827;SDS011;5467;59.334;13.512;2023-04-29T12:34:27;0.60;;;0.60;;
10827;SDS011;5467;59.334;13.512;2023-04-29T12:36:55;0.50;;;0.50;;
10827;SDS011;5467;59.334;13.512;2023-04-29T12:39:24;0.60;;;0.60;;
10827;SDS011;5467;59.334;13.512;2023-04-29T12:41:53;0.50;;;0.50;;
10827;SDS011;5467;59.334;13.512;2023-04-29T12:44:22;0.50;;;0.50;;
10827;SDS011;5467;59.334;13.512;2023-04-29T12:46:49;0.40;;;0.40;;
10827;SDS011;5467;59.334;13.512;2023-04-29T12:49:19;0.40;;;0.40;;
10827;SDS011;5467;59.334;13.512;2023-04-29T12:51:49;0.40;;;0.40;;
10827;SDS011;5467;59.334;13.512;2023-04-29T12:54:16;0.40;;;0.40;;
10827;SDS011;5467;59.334;13.512;2023-04-29T12:56:44;0.30;;;0.30;;
10827;SDS011;5467;59.334;13.512;2023-04-29T12:59:12;0.60;;;0.60;;
10827;SDS011;5467;59.334;13.512;2023-04-29T13:01:39;0.50;;;0.50;;
10827;SDS011;5467;59.334;13.512;2023-04-29T13:04:06;0.50;;;0.50;;
10827;SDS011;5467;59.334;13.512;2023-04-29T13:06:37;0.30;;;0.30;;
10827;SDS011;5467;59.334;13.512;2023-04-29T13:09:05;0.40;;;0.40;;
10827;SDS011;5467;59.334;13.512;2023-04-29T13:11:36;0.50;;;0.50;;
10827;SDS011;5467;59.334;13.512;2023-04-29T13:14:03;0.40;;;0.40;;
10827;SDS011;5467;59.334;13.512;2023-04-29T13:16:31;0.40;;;0.40;;
10827;SDS011;5467;59.334;13.512;2023-04-29T13:18:59;0.40;;;0.40;;
10827;SDS011;5467;59.334;13.512;2023-04-29T13:21:26;0.40;;;0.40;;
10827;SDS011;5467;59.334;13.512;2023-04-29T13:23:55;0.43;;;0.43;;
10827;SDS011;5467;59.334;13.512;2023-04-29T13:26:23;0.47;;;0.47;;
10827;SDS011;5467;59.334;13.512;2023-04-29T13:28:51;0.40;;;0.40;;
10827;SDS011;5467;59.334;13.512;2023-04-29T13:31:18;0.30;;;0.30;;
10827;SDS011;5467;59.334;13.512;2023-04-29T13:33:46;0.30;;;0.30;;
10827;SDS011;5467;59.334;13.512;2023-04-29T13:36:13;0.30;;;0.30;;
10827;SDS011;5467;59.334;13.512;2023-04-29T13:38:41;0.40;;;0.40;;
10827;SDS011;5467;59.334;13.512;2023-04-29T13:41:10;0.47;;;0.47;;
10827;SDS011;5467;59.334;13.512;2023-04-29T13:43:37;0.40;;;0.40;;
10827;SDS011;5467;59.334;13.512;2023-04-29T13:46:04;0.40;;;0.40;;
10827;SDS011;5467;59.334;13.512;2023-04-29T13:48:32;0.40;;;0.40;;
10827;SDS011;5467;59.334;13.512;2023-04-29T13:50:59;0.40;;;0.40;;
10827;SDS011;5467;59.334;13.512;2023-04-29T13:53:26;0.30;;;0.30;;
10827;SDS011;5467;59.334;13.512;2023-04-29T13:55:53;0.40;;;0.40;;
10827;SDS011;5467;59.334;13.512;2023-04-29T13:58:22;0.40;;;0.40;;
10827;SDS011;5467;59.334;13.512;2023-04-29T14:00:49;0.30;;;0.30;;
10827;SDS011;5467;59.334;13.512;2023-04-29T14:03:17;0.40;;;0.40;;
10827;SDS011;5467;59.334;13.512;2023-04-29T14:05:44;0.37;;;0.37;;
10827;SDS011;5467;59.334;13.512;2023-04-29T14:08:11;0.30;;;0.30;;
10827;SDS011;5467;59.334;13.512;2023-04-29T14:10:39;0.30;;;0.30;;
10827;SDS011;5467;59.334;13.512;2023-04-29T14:13:06;0.40;;;0.40;;
10827;SDS011;5467;59.334;13.512;2023-04-29T14:15:35;0.30;;;0.30;;
